createdAt,value
2023-02-14T00:00:35.519Z,0.66
2023-02-14T00:03:37.311Z,0.70
2023-02-14T00:06:40.424Z,0.58
2023-02-14T00:09:42.119Z,0.53
2023-02-14T00:12:43.853Z,0.56
2023-02-14T00:15:46.216Z,0.44
2023-02-14T00:19:03.240Z,0.38
2023-02-14T00:22:06.598Z,0.36
2023-02-14T00:25:08.389Z,0.31
2023-02-14T00:28:10.067Z,0.24
2023-02-14T00:31:12.107Z,0.18
2023-02-14T00:34:16.456Z,0.25
2023-02-14T00:37:19.515Z,0.22
2023-02-14T00:40:21.332Z,0.14
2023-02-14T00:43:22.987Z,0.17
2023-02-14T00:46:26.405Z,0.05
2023-02-14T00:49:28.163Z,0.04
2023-02-14T00:52:31.722Z,-0.04
2023-02-14T00:55:33.499Z,-0.07
2023-02-14T00:58:35.423Z,-0.05
2023-02-14T01:01:37.137Z,-0.02
2023-02-14T01:04:38.853Z,-0.06
2023-02-14T01:07:42.728Z,-0.10
2023-02-14T01:10:46.155Z,-0.19
2023-02-14T01:13:49.729Z,-0.17
2023-02-14T01:16:51.434Z,-0.25
2023-02-14T01:19:53.821Z,-0.35
2023-02-14T01:22:57.507Z,-0.29
2023-02-14T01:26:03.457Z,-0.44
2023-02-14T01:29:05.561Z,-0.45
2023-02-14T01:32:07.332Z,-0.36
2023-02-14T01:35:09.838Z,-0.36
2023-02-14T01:38:12.825Z,-0.27
2023-02-14T01:41:15.346Z,-0.37
2023-02-14T01:44:55.734Z,-0.46
2023-02-14T01:47:58.734Z,-0.56
2023-02-14T01:51:00.808Z,-0.55
2023-02-14T01:54:06.750Z,-0.69
2023-02-14T01:57:12.672Z,-0.70
2023-02-14T02:00:34.172Z,-0.66
2023-02-14T02:03:39.532Z,-0.72
2023-02-14T02:06:45.479Z,-0.72
2023-02-14T02:09:53.595Z,-0.73
2023-02-14T02:13:03.566Z,-0.75
2023-02-14T02:16:42.359Z,-0.81
2023-02-14T02:20:17.420Z,-0.84
2023-02-14T02:23:58.287Z,-0.80
2023-02-14T02:27:17.502Z,-0.89
2023-02-14T02:30:39.441Z,-0.83
2023-02-14T02:34:22.032Z,-0.90
2023-02-14T02:37:46.086Z,-1.04
2023-02-14T02:41:03.784Z,-1.00
2023-02-14T02:44:15.318Z,-0.81
2023-02-14T02:47:22.371Z,-0.95
2023-02-14T02:50:50.862Z,-1.05
2023-02-14T02:54:00.353Z,-1.17
2023-02-14T02:57:05.487Z,-1.12
2023-02-14T03:00:11.846Z,-1.03
2023-02-14T03:03:32.368Z,-1.06
2023-02-14T03:06:34.259Z,-1.21
2023-02-14T03:09:53.079Z,-1.25
2023-02-14T03:13:13.923Z,-1.23
2023-02-14T03:16:32.100Z,-1.25
2023-02-14T03:20:07.297Z,-1.27
2023-02-14T03:23:17.346Z,-1.30
2023-02-14T03:26:28.097Z,-1.36
2023-02-14T03:29:42.937Z,-1.39
2023-02-14T03:32:49.866Z,-1.24
2023-02-14T03:36:02.927Z,-1.31
2023-02-14T03:39:10.683Z,-1.27
2023-02-14T03:42:19.123Z,-1.32
2023-02-14T03:45:27.744Z,-1.42
2023-02-14T03:48:32.213Z,-1.41
2023-02-14T03:51:35.985Z,-1.43
2023-02-14T03:54:38.540Z,-1.47
2023-02-14T03:57:50.283Z,-1.53
2023-02-14T04:01:00.827Z,-1.55
2023-02-14T04:04:06.326Z,-1.41
2023-02-14T04:07:10.334Z,-1.52
2023-02-14T04:10:12.359Z,-1.49
2023-02-14T04:13:15.458Z,-1.58
2023-02-14T04:16:17.236Z,-1.55
2023-02-14T04:19:24.715Z,-1.56
2023-02-14T04:22:27.410Z,-1.34
2023-02-14T04:25:30.125Z,-1.30
2023-02-14T04:28:33.863Z,-1.37
2023-02-14T04:31:35.589Z,-1.50
2023-02-14T04:34:38.448Z,-1.51
2023-02-14T04:37:40.349Z,-1.57
2023-02-14T04:40:42.216Z,-1.59
2023-02-14T04:43:45.352Z,-1.59
2023-02-14T04:46:47.208Z,-1.50
2023-02-14T04:49:48.882Z,-1.56
2023-02-14T04:52:50.566Z,-1.59
2023-02-14T04:55:52.336Z,-1.63
2023-02-14T04:58:55.915Z,-1.63
2023-02-14T05:01:57.703Z,-1.73
2023-02-14T05:04:59.431Z,-1.53
2023-02-14T05:08:01.179Z,-1.61
2023-02-14T05:11:03.050Z,-1.50
2023-02-14T05:14:06.158Z,-1.45
2023-02-14T05:17:07.978Z,-1.25
2023-02-14T05:20:10.247Z,-1.18
2023-02-14T05:23:13.837Z,-0.95
2023-02-14T05:26:15.559Z,-0.83
2023-02-14T05:29:18.595Z,-0.77
2023-02-14T05:32:20.289Z,-0.68
2023-02-14T05:35:22.035Z,-0.64
2023-02-14T05:38:23.658Z,-0.54
2023-02-14T05:41:25.431Z,-0.43
2023-02-14T05:44:28.546Z,-0.39
2023-02-14T05:47:30.328Z,-0.29
2023-02-14T05:50:32.000Z,-0.28
2023-02-14T05:53:34.049Z,-0.25
2023-02-14T05:56:35.768Z,-0.46
2023-02-14T05:59:38.888Z,-0.32
2023-02-14T06:02:40.965Z,-0.27
2023-02-14T06:05:42.649Z,-0.27
2023-02-14T06:08:44.300Z,-0.21
2023-02-14T06:11:46.013Z,-0.27
2023-02-14T06:14:49.077Z,-0.15
2023-02-14T06:17:52.981Z,-0.20
2023-02-14T06:20:55.810Z,-0.33
2023-02-14T06:23:57.541Z,-0.24
2023-02-14T06:27:00.130Z,-0.35
2023-02-14T06:30:04.407Z,-0.44
2023-02-14T06:33:06.805Z,-0.71
2023-02-14T06:36:09.073Z,-0.63
2023-02-14T06:39:10.795Z,-0.57
2023-02-14T06:42:12.452Z,-0.44
2023-02-14T06:45:15.668Z,-0.62
2023-02-14T06:48:17.475Z,-0.51
2023-02-14T06:51:19.582Z,-0.49
2023-02-14T06:54:21.244Z,-0.59
2023-02-14T06:57:22.911Z,-0.58
2023-02-14T07:00:26.114Z,-0.63
2023-02-14T07:03:28.217Z,-0.90
2023-02-14T07:06:30.745Z,-0.71
2023-02-14T07:09:32.489Z,-0.50
2023-02-14T07:12:34.911Z,-0.53
2023-02-14T07:15:38.204Z,-0.47
2023-02-14T07:18:40.065Z,-0.49
2023-02-14T07:21:41.819Z,-0.38
2023-02-14T07:24:44.494Z,-0.37
2023-02-14T07:27:46.228Z,-0.24
2023-02-14T07:30:49.470Z,-0.25
2023-02-14T07:33:51.670Z,-0.22
2023-02-14T07:36:53.366Z,-0.15
2023-02-14T07:39:55.105Z,-0.02
2023-02-14T07:42:58.621Z,0.04
2023-02-14T07:46:02.010Z,0.15
2023-02-14T07:49:03.954Z,0.23
2023-02-14T07:52:05.751Z,0.14
2023-02-14T07:55:08.027Z,0.28
2023-02-14T07:58:09.724Z,0.32
2023-02-14T08:01:12.849Z,0.23
2023-02-14T08:04:14.616Z,0.21
2023-02-14T08:07:16.326Z,0.23
2023-02-14T08:10:18.355Z,0.23
2023-02-14T08:13:20.454Z,0.22
2023-02-14T08:16:23.675Z,0.29
2023-02-14T08:19:25.416Z,0.27
2023-02-14T08:22:27.106Z,0.22
2023-02-14T08:25:28.887Z,0.47
2023-02-14T08:28:32.975Z,0.58
2023-02-14T08:31:37.397Z,0.50
2023-02-14T08:34:39.138Z,0.30
2023-02-14T08:37:41.160Z,0.45
2023-02-14T08:40:43.026Z,0.26
2023-02-14T08:43:45.336Z,0.52
2023-02-14T08:46:48.588Z,0.77
2023-02-14T08:49:50.425Z,0.72
2023-02-14T08:52:52.203Z,0.86
2023-02-14T08:55:53.888Z,0.73
2023-02-14T08:58:56.486Z,0.71
2023-02-14T09:01:59.565Z,0.66
2023-02-14T09:05:01.360Z,0.58
2023-02-14T09:08:03.819Z,0.43
2023-02-14T09:11:09.164Z,0.57
2023-02-14T09:14:10.852Z,0.39
2023-02-14T09:17:15.312Z,0.67
2023-02-14T09:20:17.158Z,0.97
2023-02-14T09:23:18.840Z,0.50
2023-02-14T09:26:21.005Z,0.88
2023-02-14T09:29:23.023Z,1.00
2023-02-14T09:32:29.330Z,1.14
2023-02-14T09:35:49.871Z,1.07
2023-02-14T09:38:51.710Z,1.46
2023-02-14T09:42:15.251Z,1.43
2023-02-14T09:45:21.019Z,1.59
2023-02-14T09:48:29.658Z,1.42
2023-02-14T09:51:32.177Z,1.52
2023-02-14T09:54:35.932Z,1.64
2023-02-14T09:57:45.091Z,1.82
2023-02-14T10:00:50.499Z,1.47
2023-02-14T10:04:06.677Z,1.76
2023-02-14T10:07:18.513Z,1.80
2023-02-14T10:10:25.938Z,1.73
2023-02-14T10:13:35.328Z,1.91
2023-02-14T10:16:43.545Z,1.85
2023-02-14T10:19:52.317Z,2.00
2023-02-14T10:23:01.918Z,1.85
2023-02-14T10:26:05.936Z,1.57
2023-02-14T10:29:14.323Z,1.76
2023-02-14T10:32:23.344Z,1.94
2023-02-14T10:35:35.289Z,1.90
2023-02-14T10:38:47.436Z,1.79
2023-02-14T10:41:53.192Z,1.94
2023-02-14T10:45:05.891Z,1.82
2023-02-14T10:48:17.906Z,1.61
2023-02-14T10:51:28.382Z,1.57
2023-02-14T10:54:39.271Z,1.95
2023-02-14T10:57:45.411Z,1.79
2023-02-14T11:00:58.935Z,1.94
2023-02-14T11:04:06.508Z,1.67
2023-02-14T11:07:13.819Z,1.93
2023-02-14T11:10:17.416Z,1.90
2023-02-14T11:13:31.361Z,2.21
2023-02-14T11:16:35.674Z,1.73
2023-02-14T11:19:38.836Z,1.96
2023-02-14T11:22:42.009Z,2.29
2023-02-14T11:25:51.015Z,1.71
2023-02-14T11:28:56.671Z,1.82
2023-02-14T11:32:07.773Z,1.92
2023-02-14T11:35:20.018Z,1.73
2023-02-14T11:38:30.358Z,1.91
2023-02-14T11:41:47.997Z,2.11
2023-02-14T11:44:55.808Z,2.10
2023-02-14T11:48:10.184Z,2.20
2023-02-14T11:51:16.724Z,2.13
2023-02-14T11:54:30.353Z,2.29
2023-02-14T11:57:35.057Z,2.09
2023-02-14T12:00:37.534Z,2.34
2023-02-14T12:03:45.576Z,2.41
2023-02-14T12:06:47.443Z,2.01
2023-02-14T12:10:09.377Z,2.09
2023-02-14T12:13:24.001Z,2.17
2023-02-14T12:16:32.535Z,2.42
2023-02-14T12:19:41.396Z,2.15
2023-02-14T12:22:49.962Z,2.38
2023-02-14T12:26:01.555Z,2.43
2023-02-14T12:29:14.230Z,2.57
2023-02-14T12:32:21.750Z,3.01
2023-02-14T12:35:42.195Z,2.91
2023-02-14T12:38:54.777Z,2.48
2023-02-14T12:42:11.954Z,2.06
2023-02-14T12:45:20.458Z,2.68
2023-02-14T12:48:32.153Z,3.02
2023-02-14T12:51:40.891Z,2.59
2023-02-14T12:54:54.216Z,2.30
2023-02-14T12:58:02.489Z,2.26
2023-02-14T13:01:38.618Z,2.43
2023-02-14T13:04:55.279Z,2.40
2023-02-14T13:08:13.885Z,2.45
2023-02-14T13:11:25.163Z,2.19
2023-02-14T13:14:36.777Z,2.30
2023-02-14T13:17:43.296Z,2.25
2023-02-14T13:20:52.287Z,2.38
2023-02-14T13:24:00.163Z,2.28
2023-02-14T13:27:06.920Z,2.33
2023-02-14T13:30:19.294Z,2.39
2023-02-14T13:33:27.644Z,2.51
2023-02-14T13:36:31.889Z,2.46
2023-02-14T13:39:38.788Z,2.24
2023-02-14T13:42:56.809Z,2.27
2023-02-14T13:46:00.105Z,2.50
2023-02-14T13:49:17.542Z,2.19
2023-02-14T13:52:39.809Z,2.23
2023-02-14T13:55:45.760Z,2.31
2023-02-14T13:58:50.090Z,2.43
2023-02-14T14:01:53.096Z,2.22
2023-02-14T14:04:55.211Z,2.29
2023-02-14T14:08:32.776Z,2.79
2023-02-14T14:11:59.671Z,2.46
2023-02-14T14:15:14.934Z,2.33
2023-02-14T14:18:41.753Z,2.67
2023-02-14T14:21:58.998Z,2.34
2023-02-14T14:25:04.978Z,2.14
2023-02-14T14:28:11.203Z,2.16
2023-02-14T14:31:13.970Z,2.23
2023-02-14T14:34:19.292Z,2.05
2023-02-14T14:37:21.668Z,2.02
2023-02-14T14:40:26.307Z,2.24
2023-02-14T14:43:31.057Z,2.15
2023-02-14T14:46:33.566Z,2.39
2023-02-14T14:49:36.825Z,2.48
2023-02-14T14:52:41.710Z,2.57
2023-02-14T14:55:46.218Z,2.36
2023-02-14T14:58:53.324Z,2.44
2023-02-14T15:01:57.341Z,2.13
2023-02-14T15:05:17.369Z,2.31
2023-02-14T15:08:22.409Z,2.25
2023-02-14T15:11:46.159Z,2.30
2023-02-14T15:14:54.695Z,2.30
2023-02-14T15:17:56.670Z,2.48
2023-02-14T15:21:00.174Z,2.49
2023-02-14T15:24:03.103Z,2.47
2023-02-14T15:27:05.000Z,2.50
2023-02-14T15:30:23.224Z,2.44
2023-02-14T15:33:25.468Z,2.39
2023-02-14T15:36:30.291Z,2.23
2023-02-14T15:39:35.442Z,2.21
2023-02-14T15:42:40.928Z,2.42
2023-02-14T15:45:43.347Z,2.25
2023-02-14T15:48:46.450Z,2.27
2023-02-14T15:51:51.047Z,2.33
2023-02-14T15:54:52.836Z,2.16
2023-02-14T15:57:56.809Z,2.10
2023-02-14T16:01:00.079Z,2.12
2023-02-14T16:04:04.960Z,2.12
2023-02-14T16:07:24.350Z,1.93
2023-02-14T16:10:27.399Z,2.02
2023-02-14T16:13:31.397Z,2.03
2023-02-14T16:16:57.567Z,2.19
2023-02-14T16:19:59.547Z,2.08
2023-02-14T16:23:21.696Z,2.01
2023-02-14T16:26:23.768Z,1.96
2023-02-14T16:29:25.658Z,1.89
2023-02-14T16:32:27.404Z,1.80
2023-02-14T16:35:30.481Z,1.80
2023-02-14T16:38:41.410Z,1.85
2023-02-14T16:41:44.707Z,1.78
2023-02-14T16:44:47.018Z,1.65
2023-02-14T16:47:49.005Z,1.63
2023-02-14T16:50:50.750Z,1.66
2023-02-14T16:53:56.953Z,1.69
2023-02-14T16:57:02.183Z,1.71
2023-02-14T17:00:06.737Z,1.81
2023-02-14T17:03:11.341Z,1.90
2023-02-14T17:06:19.009Z,1.85
2023-02-14T17:09:25.733Z,1.84
2023-02-14T17:12:30.245Z,1.84
2023-02-14T17:15:33.899Z,1.79
2023-02-14T17:18:36.668Z,1.81
2023-02-14T17:21:38.660Z,1.76
2023-02-14T17:24:41.819Z,1.80
2023-02-14T17:27:44.795Z,1.91
2023-02-14T17:30:47.458Z,1.87
2023-02-14T17:33:49.146Z,1.85
2023-02-14T17:36:51.911Z,1.83
2023-02-14T17:39:55.207Z,1.84
2023-02-14T17:42:57.088Z,1.87
2023-02-14T17:45:58.793Z,1.92
2023-02-14T17:49:02.621Z,1.92
2023-02-14T17:52:04.639Z,1.92
2023-02-14T17:55:09.372Z,1.71
2023-02-14T17:58:11.157Z,1.82
2023-02-14T18:01:13.578Z,1.90
2023-02-14T18:04:15.398Z,1.96
2023-02-14T18:07:17.152Z,1.83
2023-02-14T18:10:20.936Z,1.82
2023-02-14T18:13:23.219Z,1.78
2023-02-14T18:16:25.321Z,1.71
2023-02-14T18:19:27.358Z,1.84
2023-02-14T18:22:29.217Z,1.89
2023-02-14T18:25:32.448Z,1.91
2023-02-14T18:28:35.146Z,1.90
2023-02-14T18:31:39.574Z,1.93
2023-02-14T18:34:41.427Z,1.88
2023-02-14T18:37:43.281Z,1.87
2023-02-14T18:40:47.580Z,1.73
2023-02-14T18:43:50.122Z,1.79
2023-02-14T18:46:52.203Z,1.72
2023-02-14T18:49:53.996Z,1.63
2023-02-14T18:52:55.694Z,1.63
2023-02-14T18:55:58.952Z,1.57
2023-02-14T18:59:03.374Z,1.52
2023-02-14T19:02:05.194Z,1.31
2023-02-14T19:05:07.872Z,1.23
2023-02-14T19:08:09.834Z,1.23
2023-02-14T19:11:15.808Z,1.30
2023-02-14T19:14:18.282Z,1.31
2023-02-14T19:17:20.079Z,1.31
2023-02-14T19:20:22.298Z,1.27
2023-02-14T19:23:24.042Z,1.29
2023-02-14T19:26:30.047Z,1.33
2023-02-14T19:29:31.827Z,1.30
2023-02-14T19:32:33.704Z,1.24
2023-02-14T19:35:35.456Z,1.31
2023-02-14T19:38:37.637Z,1.39
2023-02-14T19:41:40.822Z,1.37
2023-02-14T19:44:42.723Z,1.37
2023-02-14T19:47:47.373Z,1.38
2023-02-14T19:50:49.756Z,1.41
2023-02-14T19:53:52.808Z,1.35
2023-02-14T19:56:56.267Z,1.40
2023-02-14T19:59:58.291Z,1.29
2023-02-14T20:03:00.762Z,1.30
2023-02-14T20:06:02.816Z,1.18
2023-02-14T20:09:05.048Z,1.21
2023-02-14T20:12:09.561Z,1.15
2023-02-14T20:15:11.298Z,1.13
2023-02-14T20:18:13.089Z,1.16
2023-02-14T20:21:16.718Z,1.22
2023-02-14T20:24:22.769Z,1.12
2023-02-14T20:27:25.884Z,1.01
2023-02-14T20:30:28.056Z,1.11
2023-02-14T20:33:52.728Z,1.09
2023-02-14T20:36:55.695Z,1.12
2023-02-14T20:39:57.892Z,1.15
2023-02-14T20:43:01.060Z,1.13
2023-02-14T20:46:04.113Z,0.94
2023-02-14T20:49:05.960Z,0.87
2023-02-14T20:52:07.588Z,0.89
2023-02-14T20:55:09.316Z,0.81
2023-02-14T20:58:12.983Z,0.77
2023-02-14T21:01:16.876Z,0.84
2023-02-14T21:04:18.918Z,0.86
2023-02-14T21:07:21.799Z,0.87
2023-02-14T21:10:23.693Z,0.87
2023-02-14T21:13:26.820Z,0.83
2023-02-14T21:16:29.597Z,0.79
2023-02-14T21:19:31.932Z,0.93
2023-02-14T21:22:33.716Z,0.77
2023-02-14T21:25:35.489Z,0.71
2023-02-14T21:28:38.924Z,0.74
2023-02-14T21:31:42.363Z,0.73
2023-02-14T21:34:44.228Z,0.77
2023-02-14T21:37:45.916Z,0.72
2023-02-14T21:40:47.625Z,0.72
2023-02-14T21:43:55.053Z,0.67
2023-02-14T21:46:56.721Z,0.63
2023-02-14T21:50:16.928Z,0.48
2023-02-14T21:53:19.765Z,0.60
2023-02-14T21:56:22.603Z,0.43
2023-02-14T21:59:25.822Z,0.55
2023-02-14T22:02:27.613Z,0.63
2023-02-14T22:05:29.255Z,0.60
2023-02-14T22:08:31.663Z,0.74
2023-02-14T22:11:34.105Z,0.61
2023-02-14T22:14:37.429Z,0.63
2023-02-14T22:17:39.099Z,0.65
2023-02-14T22:20:41.970Z,0.43
2023-02-14T22:23:44.278Z,0.43
2023-02-14T22:26:46.013Z,0.45
2023-02-14T22:29:49.092Z,0.40
2023-02-14T22:32:50.838Z,0.38
2023-02-14T22:35:54.610Z,0.37
2023-02-14T22:38:56.370Z,0.14
2023-02-14T22:41:58.369Z,0.10
2023-02-14T22:45:01.455Z,0.01
2023-02-14T22:48:03.611Z,0.05
2023-02-14T22:51:10.744Z,0.02
2023-02-14T22:54:15.070Z,0.02
2023-02-14T22:57:18.447Z,0.19
2023-02-14T23:00:23.110Z,0.34
2023-02-14T23:03:25.037Z,0.23
2023-02-14T23:06:28.925Z,0.10
2023-02-14T23:09:30.791Z,0.27
2023-02-14T23:12:51.224Z,0.30
2023-02-14T23:16:12.916Z,0.29
2023-02-14T23:19:35.200Z,0.22
2023-02-14T23:22:38.316Z,0.24
2023-02-14T23:25:42.145Z,0.36
2023-02-14T23:28:44.007Z,0.23
2023-02-14T23:31:47.222Z,0.18
2023-02-14T23:34:49.094Z,0.22
2023-02-14T23:37:50.795Z,0.15
2023-02-14T23:41:11.083Z,0.09
2023-02-14T23:44:13.214Z,0.03
2023-02-14T23:47:16.606Z,0.01
2023-02-14T23:50:18.589Z,0.03
2023-02-14T23:53:20.260Z,-0.09
2023-02-14T23:56:22.039Z,-0.22
2023-02-14T23:59:23.700Z,-0.33
